NCAR-RAP Real-Time Weather Data

Output produced by METARs form (26 March 2017  18:45 UTC)
found at http://weather.rap.ucar.edu/surface/
 
KBWI 261754Z 10013KT 5SM BR OVC007 08/07 A3033 RMK AO2 SLP272 T00830072 10083 20072 58011
KBWI 261654Z 08014KT 8SM OVC009 08/07 A3035 RMK AO2 SLP276 T00780067
KBWI 261554Z 09011KT 9SM OVC009 08/06 A3036 RMK AO2 SLP282 T00780061
KBWI 261539Z 09011KT 10SM OVC009 08/06 A3036 RMK AO2 T00780061
KBWI 261454Z 08011KT 10SM OVC011 08/06 A3036 RMK AO2 SLP283 T00780056 51013
KBWI 261354Z 08013KT 10SM OVC013 08/06 A3035 RMK AO2 SLP277 T00830056
KBWI 261254Z 08011KT 10SM OVC013 08/05 A3034 RMK AO2 SLP275 T00780050
KBWI 261238Z 08010KT 10SM OVC013 07/05 A3034 RMK AO2 T00720050
KBWI 261154Z 08014KT 10SM OVC015 07/05 A3033 RMK AO2 SLP269 T00720050 10089 20072 51015
KBWI 261054Z 07013KT 9SM FEW015 OVC018 08/04 A3031 RMK AO2 SLP264 T00780044
KBWI 260954Z 07011KT 10SM BKN021 BKN075 BKN250 08/05 A3030 RMK AO2 SLP261 T00780050
KBWI 260854Z 07014KT 10SM FEW018 SCT090 BKN250 08/05 A3029 RMK AO2 SLP255 T00780050 53003
KBWI 260754Z 06012KT 9SM FEW060 BKN080 OVC250 08/06 A3028 RMK AO2 SLP253 T00830056
KBWI 260654Z 06017KT 9SM FEW095 BKN250 08/06 A3028 RMK AO2 SLP252 T00830061
KBWI 260554Z 06012KT 8SM FEW080 SCT095 BKN250 09/06 A3028 RMK AO2 SLP252 T00890061 10211 20089 51012
KBWI 260454Z COR 07013G21KT 8SM SCT070 BKN095 BKN250 10/07 A3026 RMK AO2 SLP248 T01000067 402670100
KBWI 260354Z 06015KT 7SM BKN070 OVC090 12/08 A3026 RMK AO2 SLP246 T01170083
KBWI 260254Z 07014KT 10SM BKN075 BKN150 13/10 A3024 RMK AO2 SLP240 T01330100 53025
KBWI 260154Z 08020G26KT 10SM BKN065 OVC080 18/12 A3021 RMK AO2 PK WND 08026/0154 SLP228 T01830117
KBWI 260054Z 15003KT 10SM FEW080 OVC100 19/11 A3017 RMK AO2 SLP217 T01940111
KBWI 252354Z 14003KT 10SM SCT080 OVC100 21/11 A3017 RMK AO2 SLP214 T02110111 10267 20211 53012
KBWI 252254Z 14006KT 10SM SCT075 OVC090 22/11 A3015 RMK AO2 SLP209 T02220106
KBWI 252154Z 13006KT 10SM BKN080 OVC095 23/11 A3014 RMK AO2 SLP204 T02330111
KBWI 252054Z 29005KT 10SM BKN080 OVC150 24/12 A3013 RMK AO2 SLP202 T02440117 55005
KBWI 251954Z 29006KT 10SM FEW070 BKN170 OVC250 26/11 A3012 RMK AO2 SLP199 T02560111
KBWI 251854Z 31006KT 10SM FEW060 BKN200 OVC250 26/11 A3013 RMK AO2 SLP201 T02610111
KBWI 251754Z 30006KT 10SM OVC250 25/11 A3015 RMK AO2 SLP207 T02500111 10250 20150 58008
KBWI 251654Z VRB04KT 10SM OVC250 24/11 A3015 RMK AO2 SLP210 T02440106
KBWI 251554Z VRB04KT 10SM OVC250 23/11 A3017 RMK AO2 SLP215 T02280106
KBWI 251454Z 23005KT 10SM FEW160 OVC250 21/10 A3017 RMK AO2 SLP216 T02060100 58001
KBWI 251354Z 25007KT 10SM BKN160 OVC250 18/09 A3018 RMK AO2 SLP219 T01830094
KBWI 251254Z 23007KT 10SM FEW140 OVC250 16/09 A3018 RMK AO2 SLP220 T01610094
KBWI 251154Z 23005KT 10SM FEW140 FEW200 OVC240 15/09 A3017 RMK AO2 SLP217 T01500089 10161 20139 53016
KBWI 251054Z 23005KT 10SM FEW140 FEW190 OVC240 14/09 A3016 RMK AO2 SLP211 T01440089
KBWI 250954Z 23004KT 10SM FEW140 OVC250 14/08 A3014 RMK AO2 SLP204 T01440083
KBWI 250854Z 23003KT 10SM SCT160 SCT190 BKN240 14/08 A3013 RMK AO2 SLP201 T01440083 55004
KBWI 250754Z 23008KT 10SM SCT190 SCT240 16/08 A3012 RMK AO2 SLP200 T01560083
KBWI 250654Z 22009KT 10SM FEW140 SCT190 BKN250 16/08 A3013 RMK AO2 SLP203 T01560083
KBWI 250554Z 21007KT 10SM FEW140 SCT160 BKN250 16/08 A3014 RMK AO2 SLP205 T01610083 10161 20111 58008
KBWI 250454Z 22006KT 10SM FEW150 BKN170 BKN250 16/08 A3016 RMK AO2 SLP211 T01610083 401611011
KBWI 250354Z 23008KT 10SM BKN160 BKN250 16/08 A3016 RMK AO2 SLP214 T01560078
KBWI 250254Z 22005KT 10SM FEW250 13/06 A3016 RMK AO2 SLP214 T01330061 50005
KBWI 250154Z 00000KT 10SM SCT200 12/04 A3016 RMK AO2 SLP215 T01170039
KBWI 250054Z 18003KT 10SM FEW150 BKN200 14/04 A3016 RMK AO2 SLP213 T01390039
KBWI 242154Z 22010G19KT 10SM FEW150 OVC250 16/02 A3016 RMK AO2 SLP215 T01560017
KBWI 242054Z 23011KT 10SM FEW150 OVC250 15/01 A3019 RMK AO2 SLP225 T01500011 56036
KBWI 241954Z 22012KT 10SM FEW080 OVC250 14/01 A3023 RMK AO2 SLP236 T01440006
KBWI 241854Z 20012G20KT 10SM BKN250 13/01 A3026 RMK AO2 SLP248 T01280006
KBWI 241554Z 22010G22KT 10SM SCT042 BKN080 BKN120 OVC180 07/01 A3038 RMK AO2 RAE50 PRESFR SLP289 VCSH P0000 T00670006
KBWI 241454Z 23009G19KT 10SM -RA BKN080 BKN090 BKN140 OVC180 07/M01 A3042 RMK AO2 RAB38 SLP302 P0000 60000 T00671006 58012
KBWI 241354Z 21009G16KT 10SM SCT095 BKN160 OVC210 06/M03 A3044 RMK AO2 SLP307 T00561033
KBWI 241254Z 21007KT 10SM SCT090 BKN110 OVC210 03/M04 A3046 RMK AO2 SLP315 T00281044
KBWI 241154Z 20005KT 10SM SCT160 BKN220 BKN250 02/M05 A3046 RMK AO2 SLP315 T00171050 10017 21011 55007
KBWI 241054Z 20005KT 10SM BKN160 OVC250 01/M04 A3044 RMK AO2 SLP308 T00111039
KBWI 240954Z 00000KT 10SM FEW120 SCT160 OVC250 00/M05 A3047 RMK AO2 SLP317 T00001050
KBWI 240854Z 00000KT 10SM FEW180 BKN250 00/M07 A3048 RMK AO2 SLP321 T00001067 56016
KBWI 240754Z 00000KT 10SM SCT250 M01/M07 A3049 RMK AO2 SLP324 T10061072
KBWI 240654Z 00000KT 10SM FEW250 01/M09 A3051 RMK AO2 SLP331 T00061089